Time;durP1;ratioP1;P1;durP2;ratioP2;P2;SDS_P1;SDS_P2;PMS_P1;PMS_P2;Temp;Humidity;BMP_temperature;BMP_pressure;BME280_temperature;BME280_humidity;BME280_pressure;Samples;Min_cycle;Max_cycle;Signal;HPM_P1;HPM_P2
2023/09/07 00:01:04;;;;;;;4.70;4.30;;;21.50;49.20;;;;;;21002;6702;332552;31
2023/09/07 00:03:29;;;;;;;5.10;4.60;;;21.70;49.00;;;;;;20991;6702;303207;31
2023/09/07 00:05:54;;;;;;;4.03;3.83;;;21.80;48.30;;;;;;21222;6702;66172;31
2023/09/07 00:08:20;;;;;;;4.30;4.00;;;21.50;48.40;;;;;;21001;6702;274029;31
2023/09/07 00:10:45;;;;;;;4.80;4.50;;;21.50;49.60;;;;;;20998;6702;274171;31
2023/09/07 00:13:11;;;;;;;4.33;4.10;;;21.70;48.50;;;;;;21217;6702;66339;31
2023/09/07 00:15:36;;;;;;;4.60;4.30;;;21.60;48.80;;;;;;21001;6702;274853;31
2023/09/07 00:18:02;;;;;;;4.27;4.07;;;21.60;48.80;;;;;;21213;6702;66612;31
2023/09/07 00:20:28;;;;;;;4.50;4.20;;;21.40;49.00;;;;;;21210;6702;65948;31
2023/09/07 00:22:53;;;;;;;5.13;4.77;;;21.00;49.20;;;;;;20996;6702;291663;31
2023/09/07 00:25:20;;;;;;;4.75;4.43;;;21.00;49.30;;;;;;21218;6702;67342;31
2023/09/07 00:27:44;;;;;;;4.60;4.37;;;20.90;49.50;;;;;;20996;6702;276326;31
2023/09/07 00:30:10;;;;;;;4.60;4.20;;;21.00;50.40;;;;;;21002;6702;284893;31
2023/09/07 00:32:35;;;;;;;4.50;4.20;;;21.20;50.00;;;;;;21000;6702;275473;31
2023/09/07 00:35:01;;;;;;;4.90;4.40;;;21.50;49.40;;;;;;21005;6702;274748;31
2023/09/07 00:37:27;;;;;;;4.20;3.90;;;21.70;49.10;;;;;;21237;6701;66014;31
2023/09/07 00:39:52;;;;;;;4.30;4.10;;;21.50;49.40;;;;;;21005;6702;301549;31
2023/09/07 00:42:18;;;;;;;3.65;3.45;;;21.40;49.90;;;;;;21222;6702;67050;31
2023/09/07 00:44:43;;;;;;;4.10;3.90;;;21.20;49.90;;;;;;21006;6702;275696;31
2023/09/07 00:47:09;;;;;;;4.13;3.73;;;21.30;50.40;;;;;;21218;6702;67051;31
2023/09/07 00:49:34;;;;;;;4.20;4.00;;;21.20;50.20;;;;;;21220;6702;67260;31
2023/09/07 00:52:00;;;;;;;3.80;3.60;;;20.90;50.30;;;;;;21214;6702;66267;31
2023/09/07 00:54:25;;;;;;;4.63;4.20;;;20.60;50.50;;;;;;21000;6702;302774;31
2023/09/07 00:56:51;;;;;;;4.47;4.20;;;20.80;51.30;;;;;;21217;6702;67062;31
2023/09/07 00:59:17;;;;;;;4.20;4.00;;;20.80;50.80;;;;;;20992;6702;305967;31
2023/09/07 01:01:43;;;;;;;3.92;3.62;;;20.90;50.80;;;;;;21219;6702;66643;31
2023/09/07 01:04:08;;;;;;;4.80;4.43;;;20.80;50.50;;;;;;20993;6702;303673;31
2023/09/07 01:06:33;;;;;;;4.20;3.90;;;20.90;49.70;;;;;;20995;6702;333937;31
2023/09/07 01:08:59;;;;;;;3.90;3.70;;;21.10;50.00;;;;;;20975;6702;303599;31
2023/09/07 01:11:24;;;;;;;4.47;4.27;;;21.30;49.90;;;;;;20980;6702;274761;31
2023/09/07 01:13:51;;;;;;;3.97;3.77;;;21.50;48.90;;;;;;21213;6702;71296;31
2023/09/07 01:16:15;;;;;;;4.70;4.40;;;21.20;49.30;;;;;;20984;6702;302857;31
2023/09/07 01:18:41;;;;;;;4.47;4.20;;;21.20;50.20;;;;;;20993;6702;303599;31
2023/09/07 01:21:08;;;;;;;4.43;4.13;;;21.40;49.90;;;;;;20995;6702;273821;31
2023/09/07 01:23:36;;;;;;;4.47;4.13;;;21.60;50.00;;;;;;21212;6702;70731;31
2023/09/07 01:26:02;;;;;;;4.13;3.83;;;21.30;49.70;;;;;;21210;6702;67082;31
2023/09/07 01:28:27;;;;;;;4.53;4.13;;;20.80;50.10;;;;;;21207;6702;67048;31
2023/09/07 01:30:53;;;;;;;4.60;4.40;;;20.50;50.70;;;;;;21000;6702;275662;31
2023/09/07 01:33:18;;;;;;;4.90;4.60;;;20.60;50.30;;;;;;20995;6702;289752;31
2023/09/07 01:35:44;;;;;;;4.60;4.30;;;20.80;50.40;;;;;;20999;6702;303326;31
2023/09/07 01:38:10;;;;;;;4.67;4.30;;;21.00;50.50;;;;;;21211;6702;65571;31
2023/09/07 01:40:35;;;;;;;4.63;4.43;;;20.80;50.50;;;;;;21213;6702;67593;31
2023/09/07 01:43:01;;;;;;;4.47;4.27;;;20.40;50.70;;;;;;21000;6702;303279;31
2023/09/07 01:45:26;;;;;;;4.20;4.00;;;20.50;51.40;;;;;;21213;6702;66539;31
2023/09/07 01:47:53;;;;;;;4.50;4.20;;;20.40;51.30;;;;;;20998;6702;303783;31
2023/09/07 01:50:19;;;;;;;4.70;4.40;;;20.50;51.40;;;;;;20993;6701;298488;31
2023/09/07 01:52:51;;;;;;;4.53;4.23;;;20.80;50.40;;;;;;20998;6702;303054;31
2023/09/07 01:55:13;;;;;;;4.30;4.00;;;21.00;49.60;;;;;;21008;6702;330675;31
2023/09/07 01:57:39;;;;;;;4.07;3.87;;;21.10;50.30;;;;;;21221;6702;67494;31
2023/09/07 02:00:05;;;;;;;4.23;3.93;;;20.80;50.30;;;;;;20999;6702;274034;31
2023/09/07 02:02:30;;;;;;;4.07;3.87;;;20.80;50.80;;;;;;20991;6702;304722;31
2023/09/07 02:04:56;;;;;;;4.07;3.87;;;21.00;50.30;;;;;;21000;6702;273953;31
2023/09/07 02:07:21;;;;;;;3.60;3.40;;;21.20;50.00;;;;;;21214;6702;66589;31
2023/09/07 02:09:47;;;;;;;4.13;3.83;;;20.90;49.90;;;;;;21214;6702;65892;31
2023/09/07 02:12:12;;;;;;;4.30;4.10;;;20.50;50.30;;;;;;20999;6702;274319;31
2023/09/07 02:14:38;;;;;;;4.80;4.43;;;20.60;49.80;;;;;;20995;6702;332217;31
2023/09/07 02:17:03;;;;;;;4.47;4.17;;;20.70;49.90;;;;;;20996;6702;299160;31
2023/09/07 02:19:32;;;;;;;4.00;3.80;;;20.80;50.00;;;;;;21218;6702;67710;31
2023/09/07 02:21:58;;;;;;;3.97;3.77;;;20.40;49.90;;;;;;21214;6702;73365;31
2023/09/07 02:24:23;;;;;;;4.90;4.60;;;20.00;50.60;;;;;;21000;6702;314814;31
2023/09/07 02:26:50;;;;;;;4.20;4.00;;;20.00;50.10;;;;;;21003;6702;275797;31
2023/09/07 02:29:14;;;;;;;4.70;4.40;;;20.30;52.10;;;;;;20990;6702;334388;31
2023/09/07 02:31:40;;;;;;;3.90;3.60;;;20.50;50.20;;;;;;21215;6702;67695;31
2023/09/07 02:34:06;;;;;;;3.90;3.70;;;20.20;50.50;;;;;;21210;6702;67088;31
2023/09/07 02:36:31;;;;;;;4.63;4.17;;;19.90;51.20;;;;;;20991;6702;303635;31
2023/09/07 02:38:57;;;;;;;4.10;3.90;;;20.00;51.60;;;;;;21217;6702;66630;31
2023/09/07 02:41:22;;;;;;;3.80;3.60;;;19.90;51.40;;;;;;21213;6702;66611;31
2023/09/07 02:43:48;;;;;;;4.10;3.80;;;19.70;51.60;;;;;;21212;6702;70261;31
2023/09/07 02:46:13;;;;;;;4.27;3.97;;;19.50;51.80;;;;;;20999;6702;275327;31
2023/09/07 02:48:39;;;;;;;4.73;4.43;;;19.70;52.00;;;;;;20994;6702;306122;31
2023/09/07 02:51:05;;;;;;;4.20;4.00;;;20.10;51.10;;;;;;21214;6702;67061;31
2023/09/07 02:53:30;;;;;;;5.00;4.70;;;20.00;51.00;;;;;;20995;6702;304349;31
2023/09/07 02:55:56;;;;;;;4.53;4.33;;;20.00;51.00;;;;;;21214;6702;65992;31
2023/09/07 02:58:21;;;;;;;4.73;4.27;;;19.90;51.00;;;;;;21210;6702;66730;31
2023/09/07 03:00:47;;;;;;;5.07;4.77;;;19.50;51.40;;;;;;21210;6701;66982;31
2023/09/07 03:03:12;;;;;;;4.77;4.47;;;19.30;51.90;;;;;;21215;6702;90105;31
2023/09/07 03:05:41;;;;;;;5.43;5.03;;;19.00;52.20;;;;;;21212;6702;67022;31
2023/09/07 03:08:07;;;;;;;5.00;4.70;;;18.80;52.50;;;;;;21212;6702;66971;31
2023/09/07 03:10:32;;;;;;;5.53;5.07;;;18.70;52.70;;;;;;21218;6702;66817;31
2023/09/07 03:12:58;;;;;;;5.37;4.97;;;18.60;52.80;;;;;;21004;6702;275542;31
2023/09/07 03:15:23;;;;;;;6.13;5.60;;;18.90;53.60;;;;;;21004;6702;304107;31
2023/09/07 03:17:49;;;;;;;6.20;5.80;;;19.30;52.60;;;;;;21001;6702;274036;31
2023/09/07 03:20:16;;;;;;;5.70;5.30;;;19.70;51.60;;;;;;21213;6702;69536;31
2023/09/07 03:22:40;;;;;;;5.05;4.75;;;19.50;51.40;;;;;;21216;6702;66123;31
2023/09/07 03:25:06;;;;;;;5.30;4.90;;;19.10;51.90;;;;;;21210;6702;69763;31
2023/09/07 03:27:31;;;;;;;6.20;5.77;;;18.90;52.50;;;;;;20996;6702;276668;31
2023/09/07 03:29:57;;;;;;;6.00;5.53;;;19.00;52.20;;;;;;20999;6702;303817;31
2023/09/07 03:32:23;;;;;;;6.07;5.67;;;19.30;52.30;;;;;;21002;6702;303034;31
2023/09/07 03:34:48;;;;;;;4.90;4.60;;;19.60;51.20;;;;;;21218;6702;67759;31
2023/09/07 03:37:14;;;;;;;5.07;4.60;;;19.40;51.40;;;;;;21209;6702;66963;31
2023/09/07 03:39:39;;;;;;;5.15;4.75;;;19.00;52.20;;;;;;21217;6702;68953;31
2023/09/07 03:42:05;;;;;;;6.20;5.80;;;18.70;52.70;;;;;;20998;6702;274476;31
2023/09/07 03:44:30;;;;;;;5.50;5.20;;;18.90;52.30;;;;;;20995;6702;323048;31
2023/09/07 03:46:56;;;;;;;5.50;5.10;;;19.30;52.60;;;;;;20997;6702;303353;31
2023/09/07 03:49:22;;;;;;;5.90;5.50;;;19.50;52.00;;;;;;20997;6702;332373;31
2023/09/07 03:51:47;;;;;;;5.23;4.90;;;19.80;51.40;;;;;;21218;6702;66582;31
2023/09/07 03:54:13;;;;;;;6.50;5.20;;;19.60;51.50;;;;;;21210;6702;89012;31
2023/09/07 03:56:39;;;;;;;5.32;4.93;;;19.20;51.80;;;;;;21219;6702;68689;31
2023/09/07 03:59:04;;;;;;;5.53;5.23;;;18.90;52.20;;;;;;21000;6702;273800;31
2023/09/07 04:01:30;;;;;;;6.00;5.50;;;19.10;52.70;;;;;;20998;6702;333340;31
2023/09/07 04:03:55;;;;;;;5.47;5.07;;;19.40;52.10;;;;;;20952;6702;280732;31
2023/09/07 04:06:21;;;;;;;5.47;5.17;;;19.70;51.60;;;;;;20935;6702;335847;31
2023/09/07 04:08:46;;;;;;;5.77;5.40;;;19.90;50.80;;;;;;20997;6702;274869;31
2023/09/07 04:11:12;;;;;;;5.73;5.33;;;20.10;50.50;;;;;;21002;6702;275731;31
2023/09/07 04:13:37;;;;;;;5.23;4.83;;;20.20;50.30;;;;;;21213;6700;67015;31
2023/09/07 04:16:03;;;;;;;4.73;4.53;;;19.90;50.50;;;;;;21220;6702;71490;31
2023/09/07 04:18:29;;;;;;;5.53;5.13;;;19.50;51.10;;;;;;21003;6702;305342;31
2023/09/07 04:20:54;;;;;;;5.20;4.90;;;19.60;51.60;;;;;;21214;6702;66924;31
2023/09/07 04:23:21;;;;;;;5.03;4.73;;;19.40;51.50;;;;;;21165;6702;90393;31
2023/09/07 04:25:46;;;;;;;7.00;6.53;;;19.10;51.80;;;;;;20999;6702;303532;31
2023/09/07 04:28:12;;;;;;;5.97;5.50;;;19.20;51.50;;;;;;21214;6702;76726;31
2023/09/07 04:30:38;;;;;;;5.17;4.77;;;19.10;51.60;;;;;;21221;6702;67478;31
2023/09/07 04:33:03;;;;;;;4.47;4.27;;;18.80;52.10;;;;;;21212;6702;68937;31
2023/09/07 04:35:30;;;;;;;5.50;5.20;;;18.50;52.40;;;;;;21003;6702;274733;31
2023/09/07 04:37:54;;;;;;;5.70;5.40;;;18.70;52.80;;;;;;20991;6702;333424;31
2023/09/07 04:40:20;;;;;;;6.00;5.60;;;19.10;51.70;;;;;;21000;6702;273636;31
2023/09/07 04:42:46;;;;;;;5.60;5.20;;;19.30;51.20;;;;;;21220;6702;67048;31
2023/09/07 04:45:11;;;;;;;5.60;5.20;;;19.10;51.90;;;;;;21224;6702;66592;31
2023/09/07 04:47:37;;;;;;;5.23;4.93;;;18.70;51.80;;;;;;21219;6702;66594;31
2023/09/07 04:50:04;;;;;;;5.70;5.30;;;18.40;52.40;;;;;;21002;6702;304215;31
2023/09/07 04:52:28;;;;;;;5.73;5.23;;;18.60;53.00;;;;;;21212;6702;66538;31
2023/09/07 04:54:53;;;;;;;5.50;5.20;;;18.50;52.80;;;;;;21217;6702;71893;31
2023/09/07 04:57:19;;;;;;;5.50;5.20;;;18.40;53.30;;;;;;20992;6702;292644;31
2023/09/07 04:59:45;;;;;;;4.85;4.45;;;18.60;53.20;;;;;;21212;6702;67542;31
2023/09/07 05:02:11;;;;;;;5.60;5.10;;;18.60;53.00;;;;;;20988;6702;274893;31
2023/09/07 05:04:36;;;;;;;5.28;4.87;;;18.80;53.00;;;;;;20992;6702;302954;31
2023/09/07 05:07:02;;;;;;;5.03;4.60;;;19.10;52.30;;;;;;20967;6702;274569;31
2023/09/07 05:09:29;;;;;;;4.77;4.50;;;19.40;51.60;;;;;;20989;6702;302817;31
2023/09/07 05:11:53;;;;;;;5.23;4.93;;;19.60;51.30;;;;;;20971;6702;305486;31
2023/09/07 05:14:19;;;;;;;4.77;4.47;;;19.80;50.10;;;;;;21201;6702;67111;31
2023/09/07 05:16:44;;;;;;;5.20;4.90;;;19.50;50.40;;;;;;20982;6702;275739;31
2023/09/07 05:19:16;;;;;;;5.10;4.80;;;19.50;51.30;;;;;;21208;6702;70956;31
2023/09/07 05:21:44;;;;;;;4.87;4.57;;;19.30;51.50;;;;;;21202;6702;67481;31
2023/09/07 05:24:10;;;;;;;5.10;4.80;;;19.00;52.10;;;;;;20963;6696;303089;31
2023/09/07 05:26:35;;;;;;;5.87;5.47;;;19.10;52.50;;;;;;20951;6711;302271;31
2023/09/07 05:29:01;;;;;;;5.90;5.50;;;19.50;51.30;;;;;;20973;6711;296889;31
2023/09/07 05:31:27;;;;;;;5.70;5.30;;;19.70;50.70;;;;;;20959;6711;336877;31
2023/09/07 05:33:52;;;;;;;4.63;4.33;;;19.80;50.90;;;;;;21191;6711;72395;31
2023/09/07 05:36:18;;;;;;;4.40;4.15;;;19.60;51.20;;;;;;21186;6711;66615;31
2023/09/07 05:38:44;;;;;;;4.50;4.30;;;19.20;51.80;;;;;;21190;6711;66821;31
2023/09/07 05:41:09;;;;;;;5.20;4.70;;;19.00;52.50;;;;;;20964;6711;305073;31
2023/09/07 05:43:35;;;;;;;4.50;4.30;;;19.10;53.00;;;;;;21150;6711;66117;31
2023/09/07 05:46:00;;;;;;;4.20;4.00;;;19.10;52.70;;;;;;21144;6711;68146;31
2023/09/07 05:48:26;;;;;;;4.12;3.83;;;19.00;53.10;;;;;;21177;6713;68233;31
2023/09/07 05:50:51;;;;;;;3.97;3.70;;;19.10;54.00;;;;;;21164;6713;67850;31
2023/09/07 05:53:17;;;;;;;5.15;4.85;;;19.30;54.10;;;;;;20970;6711;275890;31
2023/09/07 05:55:43;;;;;;;4.53;4.20;;;20.00;52.90;;;;;;20960;6711;303899;31
2023/09/07 05:58:09;;;;;;;4.20;3.90;;;20.80;52.00;;;;;;21160;6711;66096;31
2023/09/07 06:00:35;;;;;;;3.40;3.30;;;21.00;50.90;;;;;;21157;6711;67107;31
2023/09/07 06:03:03;;;;;;;3.60;3.30;;;21.00;51.00;;;;;;21165;6711;66755;31
2023/09/07 06:05:29;;;;;;;4.00;3.80;;;20.90;51.00;;;;;;20957;6711;333385;31
2023/09/07 06:07:55;;;;;;;4.00;3.80;;;21.20;50.20;;;;;;21178;6713;67570;31
2023/09/07 06:10:20;;;;;;;4.20;4.00;;;21.40;50.40;;;;;;20961;6713;306744;31
2023/09/07 06:12:48;;;;;;;4.10;3.90;;;21.80;49.40;;;;;;20955;6713;275071;31
2023/09/07 06:15:13;;;;;;;3.63;3.43;;;22.40;48.10;;;;;;21203;6713;65884;31
2023/09/07 06:17:39;;;;;;;4.53;3.80;;;22.70;48.40;;;;;;21177;6713;67685;31
2023/09/07 06:20:05;;;;;;;4.30;4.00;;;22.80;48.50;;;;;;20945;6713;302931;31
2023/09/07 06:22:30;;;;;;;4.55;4.15;;;23.20;46.80;;;;;;20940;6713;306629;31
2023/09/07 06:25:18;;;;;;;4.30;3.97;;;23.60;45.80;;;;;;20957;6713;274727;31
2023/09/07 06:27:46;;;;;;;4.10;3.80;;;23.90;45.00;;;;;;20911;6713;304886;31
2023/09/07 06:30:12;;;;;;;3.90;3.60;;;24.20;44.70;;;;;;21135;6713;67291;31
2023/09/07 06:32:38;;;;;;;3.60;3.33;;;24.10;45.00;;;;;;21160;6713;68885;31
2023/09/07 06:35:03;;;;;;;4.07;3.78;;;23.80;45.40;;;;;;20956;6711;308051;31
2023/09/07 06:37:50;;;;;;;3.57;3.37;;;23.80;45.00;;;;;;21172;6712;68110;31
2023/09/07 06:40:21;;;;;;;3.90;3.60;;;23.60;45.20;;;;;;21109;6712;67253;31
2023/09/07 06:42:49;;;;;;;4.00;3.70;;;23.40;45.90;;;;;;21153;6713;66408;31
2023/09/07 06:45:27;;;;;;;3.90;3.60;;;23.20;46.30;;;;;;20786;6713;276190;31
2023/09/07 06:47:57;;;;;;;3.30;3.10;;;23.50;45.80;;;;;;21074;6713;88366;31
2023/09/07 06:50:25;;;;;;;3.70;3.50;;;23.60;45.90;;;;;;20903;6713;333167;31
2023/09/07 06:53:00;;;;;;;3.87;3.67;;;23.90;45.30;;;;;;20937;6713;277477;31
2023/09/07 06:55:37;;;;;;;4.57;4.37;;;24.40;44.70;;;;;;20693;6713;278912;31
2023/09/07 07:01:09;;;;;;;4.30;3.93;;;25.30;43.40;;;;;;20943;6713;276770;31
2023/09/07 07:03:39;;;;;;;4.10;3.70;;;25.60;42.60;;;;;;21107;6713;66669;31
2023/09/07 07:06:10;;;;;;;4.07;3.80;;;25.60;43.00;;;;;;21129;6713;67142;31
2023/09/07 07:08:48;;;;;;;4.10;3.90;;;25.40;43.50;;;;;;21112;6713;66228;31
2023/09/07 07:11:19;;;;;;;4.07;3.87;;;25.30;43.90;;;;;;21115;6713;66571;31
2023/09/07 07:13:46;;;;;;;4.57;4.05;;;25.20;44.10;;;;;;20903;6713;333558;31
2023/09/07 07:16:32;;;;;;;3.40;3.20;;;25.40;43.40;;;;;;21144;6713;67271;31
2023/09/07 07:19:26;;;;;;;4.23;3.93;;;25.50;43.50;;;;;;20881;6713;274894;31
2023/09/07 07:22:14;;;;;;;4.15;3.85;;;25.80;43.10;;;;;;20887;6713;295896;31
2023/09/07 07:24:41;;;;;;;3.90;3.60;;;26.30;42.40;;;;;;21128;6713;67267;31
2023/09/07 07:27:16;;;;;;;3.75;3.55;;;26.20;42.60;;;;;;20920;6713;333025;31
2023/09/07 07:29:42;;;;;;;4.10;3.80;;;26.30;42.00;;;;;;21112;6713;66780;31
2023/09/07 07:32:09;;;;;;;4.33;4.03;;;26.40;42.50;;;;;;20925;6713;304455;31
2023/09/07 07:34:37;;;;;;;4.40;4.00;;;26.60;41.80;;;;;;21143;6713;68623;31
2023/09/07 07:37:09;;;;;;;3.90;3.60;;;26.70;42.10;;;;;;20907;6713;278091;31
2023/09/07 07:39:35;;;;;;;3.62;3.40;;;26.90;41.40;;;;;;20888;6713;298971;31
2023/09/07 07:42:03;;;;;;;3.75;3.60;;;27.40;40.60;;;;;;20895;6713;304375;31
2023/09/07 07:44:27;;;;;;;4.97;3.43;;;27.70;40.10;;;;;;21165;6713;67176;31
2023/09/07 07:46:52;;;;;;;4.40;3.83;;;27.80;40.40;;;;;;21175;6711;66805;31
2023/09/07 07:49:18;;;;;;;3.37;3.17;;;27.60;40.70;;;;;;21174;6712;66776;31
2023/09/07 07:51:44;;;;;;;3.80;3.50;;;27.40;41.00;;;;;;20970;6712;275504;31
2023/09/07 07:54:09;;;;;;;3.70;3.50;;;27.60;40.20;;;;;;21182;6713;66336;31
2023/09/07 07:56:35;;;;;;;3.70;3.50;;;27.70;40.40;;;;;;20962;6713;301618;31
2023/09/07 07:59:02;;;;;;;3.80;3.50;;;28.00;39.90;;;;;;21176;6713;66688;31
2023/09/07 08:01:26;;;;;;;4.73;4.10;;;28.00;40.00;;;;;;21174;6713;66675;31
2023/09/07 08:03:53;;;;;;;4.30;3.90;;;27.90;40.30;;;;;;20963;6713;304931;31
2023/09/07 08:06:19;;;;;;;6.43;3.90;;;28.10;39.50;;;;;;21176;6713;66803;31
2023/09/07 08:08:44;;;;;;;4.93;3.77;;;28.10;39.80;;;;;;21137;6713;66939;31
2023/09/07 08:11:10;;;;;;;4.00;3.80;;;28.00;40.10;;;;;;20917;6713;304677;31
2023/09/07 08:13:35;;;;;;;3.87;3.67;;;28.20;39.70;;;;;;21164;6713;66462;31
2023/09/07 08:16:01;;;;;;;4.03;3.67;;;28.20;39.60;;;;;;20928;6713;307176;31
2023/09/07 08:18:26;;;;;;;4.83;4.27;;;28.40;39.60;;;;;;21143;6713;72450;31
2023/09/07 08:20:53;;;;;;;3.83;3.63;;;28.50;39.40;;;;;;21165;6713;66758;31
2023/09/07 08:23:18;;;;;;;6.77;4.30;;;28.40;39.90;;;;;;21156;6713;67050;31
2023/09/07 08:25:46;;;;;;;5.10;4.80;;;28.30;39.80;;;;;;20949;6713;312674;31
2023/09/07 08:28:09;;;;;;;5.22;4.75;;;28.30;39.20;;;;;;20909;6713;305448;31
2023/09/07 08:30:53;;;;;;;4.85;4.40;;;28.50;39.20;;;;;;20893;6713;285530;31
2023/09/07 08:33:16;;;;;;;5.47;4.97;;;28.70;39.70;;;;;;20924;6713;275755;31
2023/09/07 08:35:43;;;;;;;5.37;4.80;;;28.80;39.50;;;;;;20937;6713;309104;31
2023/09/07 08:38:09;;;;;;;4.83;4.37;;;28.90;39.20;;;;;;21146;6713;65994;31
2023/09/07 08:40:36;;;;;;;4.40;3.97;;;28.60;39.50;;;;;;21166;6713;66161;31
2023/09/07 08:43:01;;;;;;;5.20;4.80;;;28.40;40.10;;;;;;21167;6713;66003;31
2023/09/07 08:45:28;;;;;;;4.83;4.40;;;28.20;40.40;;;;;;21155;6713;66661;31
2023/09/07 08:47:52;;;;;;;5.60;5.07;;;28.00;40.60;;;;;;20941;6713;276548;31
2023/09/07 08:50:18;;;;;;;4.47;4.17;;;28.20;40.80;;;;;;21169;6713;67334;31
2023/09/07 08:52:45;;;;;;;5.00;4.57;;;28.20;40.70;;;;;;21171;6713;66803;31
2023/09/07 08:55:09;;;;;;;4.63;4.23;;;28.10;41.00;;;;;;21167;6713;66230;31
2023/09/07 08:57:35;;;;;;;4.90;4.60;;;28.00;41.20;;;;;;21172;6713;66429;31
2023/09/07 09:00:00;;;;;;;4.93;4.63;;;27.90;41.40;;;;;;21172;6711;66925;31
2023/09/07 09:02:26;;;;;;;5.07;4.70;;;27.90;41.60;;;;;;21178;6712;65736;31
2023/09/07 09:04:52;;;;;;;5.60;5.30;;;27.90;41.60;;;;;;21178;6712;68261;31
2023/09/07 09:07:19;;;;;;;6.00;5.60;;;28.00;41.60;;;;;;21167;6713;66890;31
2023/09/07 09:09:44;;;;;;;6.90;6.40;;;28.00;41.60;;;;;;20954;6713;304960;31
2023/09/07 09:12:10;;;;;;;7.60;7.00;;;28.40;41.20;;;;;;21175;6713;66722;31
2023/09/07 09:14:36;;;;;;;7.60;7.10;;;28.70;40.80;;;;;;21165;6713;65704;31
2023/09/07 09:17:01;;;;;;;7.83;7.23;;;28.60;40.40;;;;;;21171;6713;69451;31
2023/09/07 09:19:33;;;;;;;7.70;7.30;;;28.50;40.60;;;;;;20948;6713;275945;31
2023/09/07 09:21:59;;;;;;;8.53;7.60;;;28.80;40.70;;;;;;21168;6713;66559;31
2023/09/07 09:24:24;;;;;;;7.60;7.07;;;28.90;40.30;;;;;;21163;6713;66229;31
2023/09/07 09:26:50;;;;;;;7.72;7.12;;;28.80;40.30;;;;;;20938;6713;306246;31
2023/09/07 09:29:16;;;;;;;6.47;6.17;;;29.10;39.90;;;;;;21145;6713;66164;31
2023/09/07 09:31:41;;;;;;;9.63;9.02;;;29.10;39.60;;;;;;20947;6713;275918;31
2023/09/07 09:34:07;;;;;;;7.17;6.70;;;29.40;39.10;;;;;;21184;6713;75862;31
2023/09/07 09:36:32;;;;;;;7.43;7.03;;;29.40;39.30;;;;;;21198;6713;66193;31
2023/09/07 09:38:58;;;;;;;8.00;7.50;;;29.20;39.60;;;;;;20961;6713;274976;31
2023/09/07 09:41:23;;;;;;;6.47;6.07;;;29.40;39.60;;;;;;21185;6713;71665;31
2023/09/07 09:43:51;;;;;;;6.43;5.93;;;29.50;39.30;;;;;;21177;6713;69356;31
2023/09/07 09:46:17;;;;;;;6.67;6.27;;;29.40;39.20;;;;;;21176;6713;65910;31
2023/09/07 09:48:43;;;;;;;6.80;6.40;;;29.30;39.40;;;;;;20970;6713;275893;31
2023/09/07 09:51:08;;;;;;;6.50;6.10;;;29.50;39.10;;;;;;20964;6713;282341;31
2023/09/07 09:53:34;;;;;;;6.72;6.22;;;29.90;38.60;;;;;;20970;6713;276144;31
2023/09/07 09:56:00;;;;;;;6.40;5.90;;;30.20;37.90;;;;;;20965;6713;304307;31
2023/09/07 09:58:25;;;;;;;6.93;6.53;;;30.50;37.70;;;;;;21175;6713;66057;31
2023/09/07 10:00:55;;;;;;;7.55;7.15;;;30.40;37.90;;;;;;20970;6713;304736;31
2023/09/07 10:03:26;;;;;;;7.00;6.50;;;30.40;38.70;;;;;;20955;6713;276860;31
2023/09/07 10:05:49;;;;;;;7.30;6.90;;;30.60;37.70;;;;;;20949;6713;296924;31
2023/09/07 10:08:15;;;;;;;7.20;6.80;;;30.70;37.30;;;;;;21179;6713;66218;31
2023/09/07 10:10:40;;;;;;;6.17;5.70;;;30.50;37.30;;;;;;21176;6711;66513;31
2023/09/07 10:13:06;;;;;;;6.87;6.37;;;30.20;38.10;;;;;;21174;6712;65811;31
2023/09/07 10:15:32;;;;;;;6.20;5.90;;;30.00;38.80;;;;;;21178;6712;67314;31
2023/09/07 10:18:07;;;;;;;6.00;5.60;;;29.80;39.10;;;;;;21183;6713;66277;31
2023/09/07 10:20:55;;;;;;;5.90;5.50;;;29.70;39.20;;;;;;20960;6713;303898;31
2023/09/07 10:23:21;;;;;;;6.00;5.70;;;29.90;38.90;;;;;;20943;6713;305126;31
2023/09/07 10:25:49;;;;;;;5.90;5.47;;;30.30;38.80;;;;;;21178;6713;65833;31
2023/09/07 10:28:25;;;;;;;5.90;5.40;;;30.30;38.60;;;;;;21178;6713;66131;31
2023/09/07 10:31:04;;;;;;;6.10;5.40;;;30.10;38.70;;;;;;21176;6713;67278;31
2023/09/07 10:33:29;;;;;;;5.53;5.22;;;29.90;38.70;;;;;;20964;6713;304769;31
2023/09/07 10:35:55;;;;;;;5.67;5.37;;;30.00;39.00;;;;;;20940;6713;303129;31
2023/09/07 10:38:20;;;;;;;6.07;5.68;;;30.20;38.80;;;;;;20970;6713;296352;31
2023/09/07 10:40:46;;;;;;;6.07;5.57;;;30.50;37.80;;;;;;20966;6713;306553;31
2023/09/07 10:43:11;;;;;;;5.90;5.40;;;30.70;37.80;;;;;;20966;6713;275359;31
2023/09/07 10:45:37;;;;;;;5.90;5.60;;;30.80;37.60;;;;;;21182;6713;69261;31
2023/09/07 10:48:06;;;;;;;5.60;5.20;;;30.70;37.60;;;;;;20967;6713;304651;31
2023/09/07 10:50:31;;;;;;;5.65;5.32;;;30.70;38.10;;;;;;20962;6713;335566;31
2023/09/07 10:52:56;;;;;;;5.67;5.27;;;30.80;37.20;;;;;;21139;6713;66517;31
2023/09/07 10:55:22;;;;;;;5.17;4.93;;;30.70;37.50;;;;;;21181;6713;65707;31
2023/09/07 10:57:52;;;;;;;6.23;5.73;;;30.50;37.90;;;;;;21182;6713;67360;31
2023/09/07 11:00:29;;;;;;;5.87;5.50;;;30.30;38.00;;;;;;20910;6713;275815;31
2023/09/07 11:02:55;;;;;;;5.53;5.10;;;30.40;37.90;;;;;;20964;6713;312925;31
2023/09/07 11:05:20;;;;;;;5.78;5.37;;;30.60;38.00;;;;;;21191;6713;66451;31
2023/09/07 11:07:46;;;;;;;5.95;5.40;;;30.60;37.90;;;;;;20972;6713;276003;31
2023/09/07 11:10:12;;;;;;;5.90;5.47;;;30.80;37.60;;;;;;20971;6713;276155;31
2023/09/07 11:12:38;;;;;;;6.03;5.73;;;31.00;37.90;;;;;;21183;6713;65722;31
2023/09/07 11:15:03;;;;;;;5.30;4.90;;;31.10;38.20;;;;;;20962;6713;276087;31
2023/09/07 11:17:28;;;;;;;5.63;5.33;;;31.10;38.40;;;;;;21166;6713;66588;31
2023/09/07 11:19:54;;;;;;;5.60;5.20;;;31.10;38.20;;;;;;20976;6713;304558;31
2023/09/07 11:22:20;;;;;;;5.65;5.35;;;31.20;38.20;;;;;;20970;6711;297089;31
2023/09/07 11:24:45;;;;;;;5.60;5.10;;;31.40;37.80;;;;;;20975;6712;275237;31
2023/09/07 11:27:11;;;;;;;5.95;5.65;;;31.60;37.50;;;;;;20974;6712;320550;31
2023/09/07 11:29:36;;;;;;;6.30;5.80;;;31.70;36.90;;;;;;21188;6713;66718;31
2023/09/07 11:32:09;;;;;;;5.95;5.45;;;31.60;37.00;;;;;;20972;6713;275273;31
2023/09/07 11:34:34;;;;;;;5.07;4.77;;;31.50;37.30;;;;;;21183;6713;66631;31
2023/09/07 11:37:00;;;;;;;6.28;5.87;;;31.30;37.50;;;;;;20967;6713;275869;31
2023/09/07 11:39:25;;;;;;;6.43;6.13;;;31.30;37.80;;;;;;21171;6713;66193;31
2023/09/07 11:41:52;;;;;;;6.05;5.62;;;31.20;37.80;;;;;;20970;6713;276135;31
2023/09/07 11:44:18;;;;;;;5.47;5.17;;;31.20;38.10;;;;;;21180;6713;66129;31
2023/09/07 11:46:44;;;;;;;6.37;5.87;;;31.10;38.10;;;;;;21184;6713;66182;31
2023/09/07 11:49:13;;;;;;;5.73;5.43;;;31.00;38.40;;;;;;21180;6713;66665;31
2023/09/07 11:51:38;;;;;;;5.90;5.60;;;30.90;38.60;;;;;;21175;6713;66401;31
2023/09/07 11:54:04;;;;;;;7.07;6.50;;;30.80;38.80;;;;;;20971;6713;333918;31
2023/09/07 11:56:29;;;;;;;6.40;6.03;;;31.00;38.40;;;;;;20962;6713;333875;31
2023/09/07 11:58:55;;;;;;;5.67;5.37;;;31.20;38.20;;;;;;21176;6713;65783;31
2023/09/07 12:01:20;;;;;;;6.65;6.10;;;31.10;38.20;;;;;;20971;6713;275250;31
2023/09/07 12:03:47;;;;;;;6.40;5.80;;;31.20;38.50;;;;;;20963;6713;300368;31
2023/09/07 12:06:11;;;;;;;6.47;5.97;;;31.40;37.90;;;;;;21165;6713;65817;31
2023/09/07 12:08:37;;;;;;;6.28;5.43;;;31.30;38.00;;;;;;21186;6713;72258;31
2023/09/07 12:11:02;;;;;;;6.57;5.73;;;31.10;38.60;;;;;;21188;6713;68609;31
2023/09/07 12:13:28;;;;;;;6.37;5.87;;;30.90;38.70;;;;;;20968;6713;275096;31
2023/09/07 12:15:54;;;;;;;6.00;5.50;;;31.00;39.00;;;;;;21183;6713;66177;31
2023/09/07 12:18:19;;;;;;;8.43;5.87;;;31.10;38.80;;;;;;20964;6713;305414;31
2023/09/07 12:20:45;;;;;;;5.80;5.50;;;31.20;38.70;;;;;;21177;6713;66121;31
2023/09/07 12:23:44;;;;;;;6.20;5.73;;;31.10;38.70;;;;;;21146;6713;66755;31
2023/09/07 12:26:10;;;;;;;6.00;5.50;;;31.00;39.10;;;;;;19777;7081;314035;31
2023/09/07 12:28:36;;;;;;;5.97;5.47;;;31.10;38.90;;;;;;20872;6698;307274;31
2023/09/07 12:31:01;;;;;;;6.20;5.60;;;31.30;38.30;;;;;;20992;6702;274066;31
2023/09/07 12:33:30;;;;;;;5.87;5.27;;;31.60;38.30;;;;;;20997;6701;303344;31
2023/09/07 12:35:52;;;;;;;6.20;5.70;;;31.70;38.00;;;;;;20999;6702;273623;31
2023/09/07 12:38:21;;;;;;;6.07;5.57;;;31.80;37.70;;;;;;21005;6702;274898;31
2023/09/07 12:40:44;;;;;;;5.20;5.00;;;32.00;37.80;;;;;;21194;6702;66129;31
2023/09/07 12:43:09;;;;;;;5.80;5.50;;;31.80;37.80;;;;;;20994;6702;284521;31
2023/09/07 12:45:35;;;;;;;5.40;5.00;;;31.70;37.20;;;;;;20994;6702;302776;31
2023/09/07 12:48:00;;;;;;;5.70;5.20;;;31.80;37.20;;;;;;21208;6702;67897;31
2023/09/07 12:50:26;;;;;;;5.43;4.93;;;31.60;37.20;;;;;;21211;6702;70524;31
2023/09/07 12:52:51;;;;;;;5.37;4.97;;;31.30;37.60;;;;;;20999;6702;273959;31